sensor_id;sensor_type;location;lat;lon;timestamp;temperature;humidity
68701;DHT22;55682;51.114;5.882;2024-03-29T00:01:18;10.98;56.56
68701;DHT22;55682;51.114;5.882;2024-03-29T00:03:44;10.81;57.01
68701;DHT22;55682;51.114;5.882;2024-03-29T00:06:10;10.84;57.06
68701;DHT22;55682;51.114;5.882;2024-03-29T00:08:35;10.74;57.22
68701;DHT22;55682;51.114;5.882;2024-03-29T00:11:02;10.71;57.36
68701;DHT22;55682;51.114;5.882;2024-03-29T00:13:28;10.75;57.16
68701;DHT22;55682;51.114;5.882;2024-03-29T00:15:54;10.74;57.30
68701;DHT22;55682;51.114;5.882;2024-03-29T00:18:20;10.74;57.31
68701;DHT22;55682;51.114;5.882;2024-03-29T00:20:45;10.66;57.62
68701;DHT22;55682;51.114;5.882;2024-03-29T00:23:11;10.68;57.61
68701;DHT22;55682;51.114;5.882;2024-03-29T00:25:37;10.75;57.43
68701;DHT22;55682;51.114;5.882;2024-03-29T00:28:02;10.71;57.54
68701;DHT22;55682;51.114;5.882;2024-03-29T00:30:29;10.71;57.49
68701;DHT22;55682;51.114;5.882;2024-03-29T00:32:54;10.65;57.73
68701;DHT22;55682;51.114;5.882;2024-03-29T00:35:20;10.68;57.77
68701;DHT22;55682;51.114;5.882;2024-03-29T00:37:48;10.59;58.06
68701;DHT22;55682;51.114;5.882;2024-03-29T00:40:14;10.70;57.82
68701;DHT22;55682;51.114;5.882;2024-03-29T00:42:40;10.70;57.83
68701;DHT22;55682;51.114;5.882;2024-03-29T00:45:06;10.68;58.05
68701;DHT22;55682;51.114;5.882;2024-03-29T00:47:32;10.77;57.93
68701;DHT22;55682;51.114;5.882;2024-03-29T00:49:58;10.78;57.96
68701;DHT22;55682;51.114;5.882;2024-03-29T00:52:23;10.80;58.12
68701;DHT22;55682;51.114;5.882;2024-03-29T00:54:49;10.78;58.47
68701;DHT22;55682;51.114;5.882;2024-03-29T00:57:15;10.70;58.95
68701;DHT22;55682;51.114;5.882;2024-03-29T00:59:42;10.67;59.40
68701;DHT22;55682;51.114;5.882;2024-03-29T01:02:09;10.62;59.77
68701;DHT22;55682;51.114;5.882;2024-03-29T01:04:35;10.59;59.96
68701;DHT22;55682;51.114;5.882;2024-03-29T01:07:00;10.57;60.26
68701;DHT22;55682;51.114;5.882;2024-03-29T01:09:26;10.56;60.38
68701;DHT22;55682;51.114;5.882;2024-03-29T01:11:51;10.55;60.63
68701;DHT22;55682;51.114;5.882;2024-03-29T01:14:17;10.56;60.70
68701;DHT22;55682;51.114;5.882;2024-03-29T01:16:43;10.57;60.70
68701;DHT22;55682;51.114;5.882;2024-03-29T01:19:08;10.58;60.81
68701;DHT22;55682;51.114;5.882;2024-03-29T01:21:36;10.57;60.96
68701;DHT22;55682;51.114;5.882;2024-03-29T01:24:03;10.55;61.16
68701;DHT22;55682;51.114;5.882;2024-03-29T01:26:28;10.55;61.30
68701;DHT22;55682;51.114;5.882;2024-03-29T01:28:54;10.54;61.41
68701;DHT22;55682;51.114;5.882;2024-03-29T01:31:20;10.55;61.50
68701;DHT22;55682;51.114;5.882;2024-03-29T01:33:45;10.50;61.53
68701;DHT22;55682;51.114;5.882;2024-03-29T01:36:11;10.54;61.38
68701;DHT22;55682;51.114;5.882;2024-03-29T01:38:36;10.57;61.33
68701;DHT22;55682;51.114;5.882;2024-03-29T01:41:02;10.62;61.31
68701;DHT22;55682;51.114;5.882;2024-03-29T01:43:28;10.65;61.34
68701;DHT22;55682;51.114;5.882;2024-03-29T01:45:55;10.67;61.49
68701;DHT22;55682;51.114;5.882;2024-03-29T01:48:23;10.69;61.49
68701;DHT22;55682;51.114;5.882;2024-03-29T01:50:51;10.72;61.67
68701;DHT22;55682;51.114;5.882;2024-03-29T01:53:19;10.74;61.60
68701;DHT22;55682;51.114;5.882;2024-03-29T01:55:45;10.73;61.71
68701;DHT22;55682;51.114;5.882;2024-03-29T01:58:11;10.77;61.60
68701;DHT22;55682;51.114;5.882;2024-03-29T02:00:41;10.75;61.69
68701;DHT22;55682;51.114;5.882;2024-03-29T02:03:09;10.74;61.49
68701;DHT22;55682;51.114;5.882;2024-03-29T02:05:41;10.77;61.28
68701;DHT22;55682;51.114;5.882;2024-03-29T02:08:08;10.77;61.09
68701;DHT22;55682;51.114;5.882;2024-03-29T02:10:35;10.81;60.55
68701;DHT22;55682;51.114;5.882;2024-03-29T02:13:01;10.84;60.54
68701;DHT22;55682;51.114;5.882;2024-03-29T02:15:30;10.90;59.92
68701;DHT22;55682;51.114;5.882;2024-03-29T02:17:57;10.90;59.04
68701;DHT22;55682;51.114;5.882;2024-03-29T02:20:23;10.95;59.13
68701;DHT22;55682;51.114;5.882;2024-03-29T02:23:01;11.10;58.51
68701;DHT22;55682;51.114;5.882;2024-03-29T02:25:28;11.19;57.27
68701;DHT22;55682;51.114;5.882;2024-03-29T02:27:54;11.16;57.62
68701;DHT22;55682;51.114;5.882;2024-03-29T02:30:20;11.26;56.70
68701;DHT22;55682;51.114;5.882;2024-03-29T02:32:46;11.53;56.18
68701;DHT22;55682;51.114;5.882;2024-03-29T02:35:12;11.48;56.02
68701;DHT22;55682;51.114;5.882;2024-03-29T02:37:38;11.48;55.37
68701;DHT22;55682;51.114;5.882;2024-03-29T02:40:04;11.70;55.50
68701;DHT22;55682;51.114;5.882;2024-03-29T02:42:31;11.72;55.21
68701;DHT22;55682;51.114;5.882;2024-03-29T02:44:58;11.88;54.81
68701;DHT22;55682;51.114;5.882;2024-03-29T02:47:24;11.78;55.34
68701;DHT22;55682;51.114;5.882;2024-03-29T02:49:49;11.66;57.12
68701;DHT22;55682;51.114;5.882;2024-03-29T02:52:15;11.60;57.67
68701;DHT22;55682;51.114;5.882;2024-03-29T02:54:41;11.59;58.43
68701;DHT22;55682;51.114;5.882;2024-03-29T02:57:07;11.60;59.81
68701;DHT22;55682;51.114;5.882;2024-03-29T02:59:33;11.44;62.24
68701;DHT22;55682;51.114;5.882;2024-03-29T03:01:59;11.31;62.66
68701;DHT22;55682;51.114;5.882;2024-03-29T03:04:24;11.00;65.53
68701;DHT22;55682;51.114;5.882;2024-03-29T03:06:50;10.90;66.55
68701;DHT22;55682;51.114;5.882;2024-03-29T03:09:16;10.80;67.62
68701;DHT22;55682;51.114;5.882;2024-03-29T03:12:00;10.82;67.62
68701;DHT22;55682;51.114;5.882;2024-03-29T03:14:26;10.88;67.22
68701;DHT22;55682;51.114;5.882;2024-03-29T03:16:52;10.84;67.66
68701;DHT22;55682;51.114;5.882;2024-03-29T03:19:17;10.80;68.03
68701;DHT22;55682;51.114;5.882;2024-03-29T03:21:44;10.79;68.21
68701;DHT22;55682;51.114;5.882;2024-03-29T03:24:09;10.75;68.39
68701;DHT22;55682;51.114;5.882;2024-03-29T03:26:37;10.72;68.82
68701;DHT22;55682;51.114;5.882;2024-03-29T03:29:03;10.62;69.26
68701;DHT22;55682;51.114;5.882;2024-03-29T03:31:28;10.52;70.03
68701;DHT22;55682;51.114;5.882;2024-03-29T03:33:54;10.46;70.54
68701;DHT22;55682;51.114;5.882;2024-03-29T03:36:20;10.53;70.82
68701;DHT22;55682;51.114;5.882;2024-03-29T03:38:45;10.50;71.07
68701;DHT22;55682;51.114;5.882;2024-03-29T03:41:11;10.59;71.13
68701;DHT22;55682;51.114;5.882;2024-03-29T03:43:36;10.55;71.22
68701;DHT22;55682;51.114;5.882;2024-03-29T03:46:02;10.50;71.64
68701;DHT22;55682;51.114;5.882;2024-03-29T03:48:28;10.42;72.12
68701;DHT22;55682;51.114;5.882;2024-03-29T03:50:57;10.51;72.22
68701;DHT22;55682;51.114;5.882;2024-03-29T03:53:23;10.43;72.57
68701;DHT22;55682;51.114;5.882;2024-03-29T03:55:48;10.39;72.88
68701;DHT22;55682;51.114;5.882;2024-03-29T03:58:14;10.39;72.94
68701;DHT22;55682;51.114;5.882;2024-03-29T04:00:40;10.40;73.27
68701;DHT22;55682;51.114;5.882;2024-03-29T04:03:06;10.40;73.28
68701;DHT22;55682;51.114;5.882;2024-03-29T04:05:31;10.42;73.43
68701;DHT22;55682;51.114;5.882;2024-03-29T04:07:58;10.37;73.67
68701;DHT22;55682;51.114;5.882;2024-03-29T04:10:24;10.37;74.03
68701;DHT22;55682;51.114;5.882;2024-03-29T04:12:52;10.34;74.57
68701;DHT22;55682;51.114;5.882;2024-03-29T04:15:18;10.31;74.83
68701;DHT22;55682;51.114;5.882;2024-03-29T04:17:44;10.28;75.05
68701;DHT22;55682;51.114;5.882;2024-03-29T04:20:10;10.30;75.47
68701;DHT22;55682;51.114;5.882;2024-03-29T04:22:35;10.31;75.49
68701;DHT22;55682;51.114;5.882;2024-03-29T04:25:01;10.33;75.86
68701;DHT22;55682;51.114;5.882;2024-03-29T04:27:28;10.38;75.93
68701;DHT22;55682;51.114;5.882;2024-03-29T04:29:53;10.40;75.72
68701;DHT22;55682;51.114;5.882;2024-03-29T04:32:19;10.40;75.63
68701;DHT22;55682;51.114;5.882;2024-03-29T04:34:49;10.42;75.75
68701;DHT22;55682;51.114;5.882;2024-03-29T04:37:15;10.44;75.70
68701;DHT22;55682;51.114;5.882;2024-03-29T04:39:42;10.46;75.93
68701;DHT22;55682;51.114;5.882;2024-03-29T04:42:08;10.48;75.99
68701;DHT22;55682;51.114;5.882;2024-03-29T04:44:34;10.48;76.15
68701;DHT22;55682;51.114;5.882;2024-03-29T04:46:59;10.52;75.96
68701;DHT22;55682;51.114;5.882;2024-03-29T04:49:26;10.54;75.44
68701;DHT22;55682;51.114;5.882;2024-03-29T04:52:07;10.53;75.47
68701;DHT22;55682;51.114;5.882;2024-03-29T04:54:34;10.52;75.67
68701;DHT22;55682;51.114;5.882;2024-03-29T04:57:00;10.51;75.80
68701;DHT22;55682;51.114;5.882;2024-03-29T04:59:32;10.49;75.99
68701;DHT22;55682;51.114;5.882;2024-03-29T05:05:53;10.48;76.33
68701;DHT22;55682;51.114;5.882;2024-03-29T05:08:20;10.49;76.39
68701;DHT22;55682;51.114;5.882;2024-03-29T05:10:48;10.41;76.84
68701;DHT22;55682;51.114;5.882;2024-03-29T05:13:13;10.40;76.96
68701;DHT22;55682;51.114;5.882;2024-03-29T05:15:39;10.43;76.89
68701;DHT22;55682;51.114;5.882;2024-03-29T05:18:05;10.41;76.98
68701;DHT22;55682;51.114;5.882;2024-03-29T05:20:31;10.43;76.79
68701;DHT22;55682;51.114;5.882;2024-03-29T05:22:58;10.43;76.76
68701;DHT22;55682;51.114;5.882;2024-03-29T05:25:25;10.34;77.02
68701;DHT22;55682;51.114;5.882;2024-03-29T05:27:50;10.29;77.50
68701;DHT22;55682;51.114;5.882;2024-03-29T05:30:16;10.33;77.58
68701;DHT22;55682;51.114;5.882;2024-03-29T05:32:43;10.37;77.57
68701;DHT22;55682;51.114;5.882;2024-03-29T05:35:09;10.38;77.69
68701;DHT22;55682;51.114;5.882;2024-03-29T05:37:36;10.40;77.69
68701;DHT22;55682;51.114;5.882;2024-03-29T05:40:02;10.41;77.67
68701;DHT22;55682;51.114;5.882;2024-03-29T05:42:31;10.42;77.62
68701;DHT22;55682;51.114;5.882;2024-03-29T05:44:57;10.41;77.53
68701;DHT22;55682;51.114;5.882;2024-03-29T05:47:23;10.38;77.72
68701;DHT22;55682;51.114;5.882;2024-03-29T05:49:49;10.35;77.76
68701;DHT22;55682;51.114;5.882;2024-03-29T05:52:15;10.39;77.85
68701;DHT22;55682;51.114;5.882;2024-03-29T05:54:42;10.45;77.80
68701;DHT22;55682;51.114;5.882;2024-03-29T05:57:08;10.52;77.77
68701;DHT22;55682;51.114;5.882;2024-03-29T05:59:35;10.59;77.48
68701;DHT22;55682;51.114;5.882;2024-03-29T06:02:01;10.63;77.34
68701;DHT22;55682;51.114;5.882;2024-03-29T06:04:27;10.69;77.22
68701;DHT22;55682;51.114;5.882;2024-03-29T06:06:59;10.74;77.13
68701;DHT22;55682;51.114;5.882;2024-03-29T06:09:25;10.77;76.92
68701;DHT22;55682;51.114;5.882;2024-03-29T06:11:51;10.70;76.90
68701;DHT22;55682;51.114;5.882;2024-03-29T06:14:17;10.69;77.02
68701;DHT22;55682;51.114;5.882;2024-03-29T06:17:01;10.74;76.89
68701;DHT22;55682;51.114;5.882;2024-03-29T06:19:45;10.79;77.00
68701;DHT22;55682;51.114;5.882;2024-03-29T06:22:11;10.77;76.69
68701;DHT22;55682;51.114;5.882;2024-03-29T06:24:36;10.75;76.84
68701;DHT22;55682;51.114;5.882;2024-03-29T06:27:04;10.82;76.53
68701;DHT22;55682;51.114;5.882;2024-03-29T06:29:30;10.79;76.19
68701;DHT22;55682;51.114;5.882;2024-03-29T06:31:55;10.68;76.48
68701;DHT22;55682;51.114;5.882;2024-03-29T06:34:21;10.68;77.08
68701;DHT22;55682;51.114;5.882;2024-03-29T06:36:47;10.72;77.34
68701;DHT22;55682;51.114;5.882;2024-03-29T06:39:12;10.80;77.25
68701;DHT22;55682;51.114;5.882;2024-03-29T06:41:38;10.79;76.98
68701;DHT22;55682;51.114;5.882;2024-03-29T06:44:04;10.71;77.11
68701;DHT22;55682;51.114;5.882;2024-03-29T06:46:29;10.65;77.42
68701;DHT22;55682;51.114;5.882;2024-03-29T06:48:55;10.56;77.78
68701;DHT22;55682;51.114;5.882;2024-03-29T06:51:21;10.54;78.31
68701;DHT22;55682;51.114;5.882;2024-03-29T06:53:46;10.60;78.51
68701;DHT22;55682;51.114;5.882;2024-03-29T06:56:12;10.72;78.33
68701;DHT22;55682;51.114;5.882;2024-03-29T06:58:38;10.82;78.09
68701;DHT22;55682;51.114;5.882;2024-03-29T07:01:03;10.84;77.76
68701;DHT22;55682;51.114;5.882;2024-03-29T07:03:29;10.89;77.53
68701;DHT22;55682;51.114;5.882;2024-03-29T07:05:55;11.00;77.15
68701;DHT22;55682;51.114;5.882;2024-03-29T07:08:20;11.07;76.42
68701;DHT22;55682;51.114;5.882;2024-03-29T07:10:46;11.11;76.06
68701;DHT22;55682;51.114;5.882;2024-03-29T07:13:11;11.17;75.51
68701;DHT22;55682;51.114;5.882;2024-03-29T07:15:37;11.27;74.84
68701;DHT22;55682;51.114;5.882;2024-03-29T07:18:04;11.34;74.44
68701;DHT22;55682;51.114;5.882;2024-03-29T07:20:29;11.46;73.99
68701;DHT22;55682;51.114;5.882;2024-03-29T07:22:55;11.57;73.32
68701;DHT22;55682;51.114;5.882;2024-03-29T07:25:21;11.64;72.58
68701;DHT22;55682;51.114;5.882;2024-03-29T07:27:47;11.68;72.45
68701;DHT22;55682;51.114;5.882;2024-03-29T07:30:15;11.73;72.58
68701;DHT22;55682;51.114;5.882;2024-03-29T07:32:41;11.71;72.70
68701;DHT22;55682;51.114;5.882;2024-03-29T07:35:12;11.67;72.90
68701;DHT22;55682;51.114;5.882;2024-03-29T07:37:38;11.67;73.03
68701;DHT22;55682;51.114;5.882;2024-03-29T07:40:05;11.75;72.90
68701;DHT22;55682;51.114;5.882;2024-03-29T07:42:31;11.78;73.03
68701;DHT22;55682;51.114;5.882;2024-03-29T07:44:57;11.76;73.22
68701;DHT22;55682;51.114;5.882;2024-03-29T07:47:22;11.76;73.63
68701;DHT22;55682;51.114;5.882;2024-03-29T07:49:51;11.84;73.55
68701;DHT22;55682;51.114;5.882;2024-03-29T07:52:16;11.90;73.43
68701;DHT22;55682;51.114;5.882;2024-03-29T07:54:45;12.01;73.26
68701;DHT22;55682;51.114;5.882;2024-03-29T07:57:10;12.11;72.94
68701;DHT22;55682;51.114;5.882;2024-03-29T07:59:36;12.13;73.17
68701;DHT22;55682;51.114;5.882;2024-03-29T08:02:04;12.19;73.78
68701;DHT22;55682;51.114;5.882;2024-03-29T08:04:29;12.15;74.71
68701;DHT22;55682;51.114;5.882;2024-03-29T08:06:55;12.05;76.24
68701;DHT22;55682;51.114;5.882;2024-03-29T08:09:21;12.06;76.51
68701;DHT22;55682;51.114;5.882;2024-03-29T08:11:46;12.18;77.17
68701;DHT22;55682;51.114;5.882;2024-03-29T08:14:12;12.33;76.55
68701;DHT22;55682;51.114;5.882;2024-03-29T08:16:38;12.37;76.55
68701;DHT22;55682;51.114;5.882;2024-03-29T08:19:03;12.38;76.87
68701;DHT22;55682;51.114;5.882;2024-03-29T08:21:29;12.57;76.47
68701;DHT22;55682;51.114;5.882;2024-03-29T08:23:55;12.76;76.12
68701;DHT22;55682;51.114;5.882;2024-03-29T08:26:24;12.97;75.95
68701;DHT22;55682;51.114;5.882;2024-03-29T08:28:50;13.12;75.02
68701;DHT22;55682;51.114;5.882;2024-03-29T08:31:16;13.16;75.16
68701;DHT22;55682;51.114;5.882;2024-03-29T08:33:42;13.21;74.73
68701;DHT22;55682;51.114;5.882;2024-03-29T08:36:09;13.23;74.96
68701;DHT22;55682;51.114;5.882;2024-03-29T08:38:36;13.26;75.27
68701;DHT22;55682;51.114;5.882;2024-03-29T08:41:03;13.37;75.09
68701;DHT22;55682;51.114;5.882;2024-03-29T08:43:29;13.53;75.20
68701;DHT22;55682;51.114;5.882;2024-03-29T08:45:54;13.68;74.81
68701;DHT22;55682;51.114;5.882;2024-03-29T08:48:20;13.77;74.37
68701;DHT22;55682;51.114;5.882;2024-03-29T08:50:46;13.79;74.49
68701;DHT22;55682;51.114;5.882;2024-03-29T08:53:12;13.90;73.77
68701;DHT22;55682;51.114;5.882;2024-03-29T08:55:37;14.09;73.22
68701;DHT22;55682;51.114;5.882;2024-03-29T08:58:04;14.17;72.50
68701;DHT22;55682;51.114;5.882;2024-03-29T09:00:30;14.13;72.59
68701;DHT22;55682;51.114;5.882;2024-03-29T09:02:57;14.26;72.06
68701;DHT22;55682;51.114;5.882;2024-03-29T09:05:22;14.56;70.93
68701;DHT22;55682;51.114;5.882;2024-03-29T09:07:49;14.71;69.94
68701;DHT22;55682;51.114;5.882;2024-03-29T09:10:15;14.67;70.12
68701;DHT22;55682;51.114;5.882;2024-03-29T09:12:41;14.74;70.11
68701;DHT22;55682;51.114;5.882;2024-03-29T09:15:07;14.81;69.79
68701;DHT22;55682;51.114;5.882;2024-03-29T09:17:39;14.86;70.26
68701;DHT22;55682;51.114;5.882;2024-03-29T09:20:06;15.10;70.04
68701;DHT22;55682;51.114;5.882;2024-03-29T09:22:32;15.33;68.62
68701;DHT22;55682;51.114;5.882;2024-03-29T09:24:58;15.23;68.73
68701;DHT22;55682;51.114;5.882;2024-03-29T09:27:24;15.14;68.57
68701;DHT22;55682;51.114;5.882;2024-03-29T09:29:49;15.15;68.87
68701;DHT22;55682;51.114;5.882;2024-03-29T09:32:15;15.21;68.87
68701;DHT22;55682;51.114;5.882;2024-03-29T09:34:45;15.16;68.33
68701;DHT22;55682;51.114;5.882;2024-03-29T09:37:11;15.01;68.37
68701;DHT22;55682;51.114;5.882;2024-03-29T09:39:37;14.96;68.29
68701;DHT22;55682;51.114;5.882;2024-03-29T09:42:06;14.75;69.45
68701;DHT22;55682;51.114;5.882;2024-03-29T09:44:33;14.79;70.29
68701;DHT22;55682;51.114;5.882;2024-03-29T09:47:03;15.04;69.65
68701;DHT22;55682;51.114;5.882;2024-03-29T09:49:33;15.27;68.81
68701;DHT22;55682;51.114;5.882;2024-03-29T09:52:00;15.53;68.33
68701;DHT22;55682;51.114;5.882;2024-03-29T09:54:29;16.10;67.43
68701;DHT22;55682;51.114;5.882;2024-03-29T09:56:57;16.55;64.88
68701;DHT22;55682;51.114;5.882;2024-03-29T09:59:23;16.67;63.49
68701;DHT22;55682;51.114;5.882;2024-03-29T10:01:50;16.78;63.26
68701;DHT22;55682;51.114;5.882;2024-03-29T10:04:20;16.91;63.40
68701;DHT22;55682;51.114;5.882;2024-03-29T10:06:47;17.01;62.06
68701;DHT22;55682;51.114;5.882;2024-03-29T10:09:19;16.89;62.23
68701;DHT22;55682;51.114;5.882;2024-03-29T10:11:45;16.80;63.07
68701;DHT22;55682;51.114;5.882;2024-03-29T10:14:12;17.09;62.70
68701;DHT22;55682;51.114;5.882;2024-03-29T10:16:38;17.35;61.23
68701;DHT22;55682;51.114;5.882;2024-03-29T10:19:05;17.18;59.65
68701;DHT22;55682;51.114;5.882;2024-03-29T10:21:32;17.33;61.06
68701;DHT22;55682;51.114;5.882;2024-03-29T10:23:58;17.52;59.55
68701;DHT22;55682;51.114;5.882;2024-03-29T10:26:25;17.51;58.94
68701;DHT22;55682;51.114;5.882;2024-03-29T10:28:50;17.38;59.19
68701;DHT22;55682;51.114;5.882;2024-03-29T10:31:17;17.34;59.13
68701;DHT22;55682;51.114;5.882;2024-03-29T10:33:44;17.20;59.36
68701;DHT22;55682;51.114;5.882;2024-03-29T10:36:10;17.22;59.86
68701;DHT22;55682;51.114;5.882;2024-03-29T10:38:38;17.70;59.09
68701;DHT22;55682;51.114;5.882;2024-03-29T10:41:04;18.06;57.46
68701;DHT22;55682;51.114;5.882;2024-03-29T10:43:33;18.18;55.90
68701;DHT22;55682;51.114;5.882;2024-03-29T10:46:03;17.83;57.00
68701;DHT22;55682;51.114;5.882;2024-03-29T10:48:30;17.48;57.82
68701;DHT22;55682;51.114;5.882;2024-03-29T10:50:58;17.31;58.98
68701;DHT22;55682;51.114;5.882;2024-03-29T10:53:26;17.48;58.95
68701;DHT22;55682;51.114;5.882;2024-03-29T10:56:07;18.09;57.57
68701;DHT22;55682;51.114;5.882;2024-03-29T11:02:46;19.36;53.10
68701;DHT22;55682;51.114;5.882;2024-03-29T11:05:15;20.21;51.65
68701;DHT22;55682;51.114;5.882;2024-03-29T11:07:42;20.70;47.79
68701;DHT22;55682;51.114;5.882;2024-03-29T11:10:36;20.31;48.24
68701;DHT22;55682;51.114;5.882;2024-03-29T11:13:29;20.96;46.79
68701;DHT22;55682;51.114;5.882;2024-03-29T11:19:43;20.28;46.12
68701;DHT22;55682;51.114;5.882;2024-03-29T11:22:11;19.77;48.64
68701;DHT22;55682;51.114;5.882;2024-03-29T11:28:28;19.11;49.36
68701;DHT22;55682;51.114;5.882;2024-03-29T11:31:01;19.09;49.63
68701;DHT22;55682;51.114;5.882;2024-03-29T11:33:35;18.99;49.98
68701;DHT22;55682;51.114;5.882;2024-03-29T11:36:22;18.66;50.56
68701;DHT22;55682;51.114;5.882;2024-03-29T11:38:51;18.50;50.87
68701;DHT22;55682;51.114;5.882;2024-03-29T11:41:19;18.37;51.02
68701;DHT22;55682;51.114;5.882;2024-03-29T11:43:47;18.26;50.89
68701;DHT22;55682;51.114;5.882;2024-03-29T11:46:14;18.08;51.25
68701;DHT22;55682;51.114;5.882;2024-03-29T11:48:44;17.96;51.82
68701;DHT22;55682;51.114;5.882;2024-03-29T11:51:17;17.85;52.72
68701;DHT22;55682;51.114;5.882;2024-03-29T11:53:44;17.93;52.79
68701;DHT22;55682;51.114;5.882;2024-03-29T11:56:10;17.81;52.95
68701;DHT22;55682;51.114;5.882;2024-03-29T11:58:40;17.76;53.10
68701;DHT22;55682;51.114;5.882;2024-03-29T12:01:07;17.97;52.92
68701;DHT22;55682;51.114;5.882;2024-03-29T12:03:40;18.19;51.95
68701;DHT22;55682;51.114;5.882;2024-03-29T12:06:06;18.29;51.69
68701;DHT22;55682;51.114;5.882;2024-03-29T12:09:00;18.36;51.16
68701;DHT22;55682;51.114;5.882;2024-03-29T12:11:25;18.23;51.75
68701;DHT22;55682;51.114;5.882;2024-03-29T12:13:52;18.33;51.72
68701;DHT22;55682;51.114;5.882;2024-03-29T12:16:18;18.30;51.87
68701;DHT22;55682;51.114;5.882;2024-03-29T12:18:46;18.33;51.95
68701;DHT22;55682;51.114;5.882;2024-03-29T12:21:12;18.64;51.89
68701;DHT22;55682;51.114;5.882;2024-03-29T12:26:50;19.06;50.59
68701;DHT22;55682;51.114;5.882;2024-03-29T12:29:32;19.35;49.18
68701;DHT22;55682;51.114;5.882;2024-03-29T12:32:19;19.51;48.29
68701;DHT22;55682;51.114;5.882;2024-03-29T12:34:45;19.28;49.34
68701;DHT22;55682;51.114;5.882;2024-03-29T12:37:12;19.30;49.22
68701;DHT22;55682;51.114;5.882;2024-03-29T12:39:41;18.88;49.57
68701;DHT22;55682;51.114;5.882;2024-03-29T12:42:07;19.10;49.69
68701;DHT22;55682;51.114;5.882;2024-03-29T12:44:33;19.13;49.53
68701;DHT22;55682;51.114;5.882;2024-03-29T12:47:00;19.11;48.84
68701;DHT22;55682;51.114;5.882;2024-03-29T12:49:26;18.99;49.47
68701;DHT22;55682;51.114;5.882;2024-03-29T12:51:52;19.05;49.47
68701;DHT22;55682;51.114;5.882;2024-03-29T12:54:17;19.22;49.39
68701;DHT22;55682;51.114;5.882;2024-03-29T12:56:46;19.46;48.53
68701;DHT22;55682;51.114;5.882;2024-03-29T12:59:11;19.22;47.66
68701;DHT22;55682;51.114;5.882;2024-03-29T13:01:37;19.22;48.23
68701;DHT22;55682;51.114;5.882;2024-03-29T13:04:03;18.96;48.59
68701;DHT22;55682;51.114;5.882;2024-03-29T13:06:29;18.88;49.28
68701;DHT22;55682;51.114;5.882;2024-03-29T13:08:55;19.06;49.18
68701;DHT22;55682;51.114;5.882;2024-03-29T13:11:22;19.27;49.04
68701;DHT22;55682;51.114;5.882;2024-03-29T13:13:47;19.55;48.63
68701;DHT22;55682;51.114;5.882;2024-03-29T13:16:13;19.31;47.56
68701;DHT22;55682;51.114;5.882;2024-03-29T13:18:39;19.36;48.05
68701;DHT22;55682;51.114;5.882;2024-03-29T13:21:05;19.33;47.61
68701;DHT22;55682;51.114;5.882;2024-03-29T13:23:30;19.24;47.98
68701;DHT22;55682;51.114;5.882;2024-03-29T13:25:58;19.37;47.64
68701;DHT22;55682;51.114;5.882;2024-03-29T13:28:25;19.30;47.51
68701;DHT22;55682;51.114;5.882;2024-03-29T13:30:51;19.15;47.73
68701;DHT22;55682;51.114;5.882;2024-03-29T13:33:17;18.98;48.47
68701;DHT22;55682;51.114;5.882;2024-03-29T13:35:44;18.85;47.95
68701;DHT22;55682;51.114;5.882;2024-03-29T13:38:11;18.82;47.78
68701;DHT22;55682;51.114;5.882;2024-03-29T13:40:36;19.03;47.15
68701;DHT22;55682;51.114;5.882;2024-03-29T13:43:02;19.17;47.38
68701;DHT22;55682;51.114;5.882;2024-03-29T13:45:27;19.22;47.17
68701;DHT22;55682;51.114;5.882;2024-03-29T13:47:53;19.30;46.77
68701;DHT22;55682;51.114;5.882;2024-03-29T13:50:19;19.25;46.15
68701;DHT22;55682;51.114;5.882;2024-03-29T13:52:46;19.25;46.32
68701;DHT22;55682;51.114;5.882;2024-03-29T13:55:12;19.12;45.14
68701;DHT22;55682;51.114;5.882;2024-03-29T13:57:38;19.10;46.76
68701;DHT22;55682;51.114;5.882;2024-03-29T14:00:04;19.10;46.18
68701;DHT22;55682;51.114;5.882;2024-03-29T14:02:31;19.11;46.39
68701;DHT22;55682;51.114;5.882;2024-03-29T14:04:57;19.13;46.33
68701;DHT22;55682;51.114;5.882;2024-03-29T14:07:23;19.25;45.98
68701;DHT22;55682;51.114;5.882;2024-03-29T14:09:50;19.17;46.60
68701;DHT22;55682;51.114;5.882;2024-03-29T14:12:16;19.17;46.19
68701;DHT22;55682;51.114;5.882;2024-03-29T14:14:43;19.22;46.10
68701;DHT22;55682;51.114;5.882;2024-03-29T14:17:12;19.21;46.40
68701;DHT22;55682;51.114;5.882;2024-03-29T14:19:39;19.23;46.87
68701;DHT22;55682;51.114;5.882;2024-03-29T14:22:06;19.29;46.90
68701;DHT22;55682;51.114;5.882;2024-03-29T14:24:33;19.33;47.01
68701;DHT22;55682;51.114;5.882;2024-03-29T14:27:04;19.33;46.88
68701;DHT22;55682;51.114;5.882;2024-03-29T14:29:34;19.41;46.99
68701;DHT22;55682;51.114;5.882;2024-03-29T14:32:01;19.48;46.75
68701;DHT22;55682;51.114;5.882;2024-03-29T14:34:27;19.67;46.07
68701;DHT22;55682;51.114;5.882;2024-03-29T14:36:55;19.42;46.48
68701;DHT22;55682;51.114;5.882;2024-03-29T14:39:20;19.29;46.74
68701;DHT22;55682;51.114;5.882;2024-03-29T14:41:49;19.24;46.85
68701;DHT22;55682;51.114;5.882;2024-03-29T14:44:17;19.02;47.26
68701;DHT22;55682;51.114;5.882;2024-03-29T14:46:44;18.93;47.36
68701;DHT22;55682;51.114;5.882;2024-03-29T14:49:10;18.69;48.02
68701;DHT22;55682;51.114;5.882;2024-03-29T14:51:38;18.64;48.18
68701;DHT22;55682;51.114;5.882;2024-03-29T14:54:04;18.57;47.89
68701;DHT22;55682;51.114;5.882;2024-03-29T14:56:31;18.69;47.09
68701;DHT22;55682;51.114;5.882;2024-03-29T14:59:01;18.51;48.03
68701;DHT22;55682;51.114;5.882;2024-03-29T15:01:27;18.46;48.47
68701;DHT22;55682;51.114;5.882;2024-03-29T15:03:53;18.44;48.27
68701;DHT22;55682;51.114;5.882;2024-03-29T15:06:19;18.50;48.10
68701;DHT22;55682;51.114;5.882;2024-03-29T15:08:46;18.50;48.20
68701;DHT22;55682;51.114;5.882;2024-03-29T15:11:11;18.56;48.07
68701;DHT22;55682;51.114;5.882;2024-03-29T15:13:37;18.68;47.92
68701;DHT22;55682;51.114;5.882;2024-03-29T15:16:03;18.85;47.67
68701;DHT22;55682;51.114;5.882;2024-03-29T15:18:29;18.79;47.35
68701;DHT22;55682;51.114;5.882;2024-03-29T15:21:01;18.81;47.22
68701;DHT22;55682;51.114;5.882;2024-03-29T15:23:29;18.67;47.92
68701;DHT22;55682;51.114;5.882;2024-03-29T15:25:57;18.82;47.56
68701;DHT22;55682;51.114;5.882;2024-03-29T15:28:27;18.71;47.67
68701;DHT22;55682;51.114;5.882;2024-03-29T15:31:16;18.46;48.36
68701;DHT22;55682;51.114;5.882;2024-03-29T15:33:46;18.40;48.67
68701;DHT22;55682;51.114;5.882;2024-03-29T15:36:12;18.48;48.40
68701;DHT22;55682;51.114;5.882;2024-03-29T15:38:38;18.30;47.79
68701;DHT22;55682;51.114;5.882;2024-03-29T15:41:04;18.05;48.38
68701;DHT22;55682;51.114;5.882;2024-03-29T15:43:30;18.02;48.73
68701;DHT22;55682;51.114;5.882;2024-03-29T15:45:57;17.96;49.05
68701;DHT22;55682;51.114;5.882;2024-03-29T15:48:24;18.02;49.27